Time;durP1;ratioP1;P1;durP2;ratioP2;P2;SDS_P1;SDS_P2;PMS_P1;PMS_P2;Temp;Humidity;BMP_temperature;BMP_pressure;BME280_temperature;BME280_humidity;BME280_pressure;Samples;Min_cycle;Max_cycle;Signal;HPM_P1;HPM_P2
2023/05/22 00:01:18;;;;;;;1999.90;999.90;;;19.90;99.90;;;;;;5031304;28;20193;-69
2023/05/22 00:03:44;;;;;;;1999.90;999.90;;;19.90;99.90;;;;;;5031506;28;20409;-69
2023/05/22 00:06:10;;;;;;;1999.90;999.90;;;19.80;99.90;;;;;;5034533;28;20891;-69
2023/05/22 00:08:37;;;;;;;1999.90;999.90;;;19.70;99.90;;;;;;5035214;28;20451;-69
2023/05/22 00:11:03;;;;;;;1999.90;999.90;;;19.70;99.90;;;;;;5034839;28;20904;-69
2023/05/22 00:13:28;;;;;;;1999.90;999.90;;;19.60;99.90;;;;;;5035032;28;20409;-69
2023/05/22 00:15:54;;;;;;;1999.90;999.90;;;19.40;99.90;;;;;;5035118;28;20463;-69
2023/05/22 00:18:19;;;;;;;1999.90;999.90;;;19.20;99.90;;;;;;5035076;28;20246;-69
2023/05/22 00:20:45;;;;;;;1999.90;999.90;;;19.20;99.90;;;;;;5034976;28;20184;-69
2023/05/22 00:23:12;;;;;;;1999.90;999.90;;;19.20;99.90;;;;;;5034885;28;20176;-69
2023/05/22 00:25:38;;;;;;;1999.90;999.90;;;19.20;99.90;;;;;;5034893;28;20544;-69
2023/05/22 00:28:04;;;;;;;1999.90;999.90;;;19.20;99.90;;;;;;5034794;28;20409;-69
2023/05/22 00:30:30;;;;;;;1999.90;999.90;;;19.20;99.90;;;;;;5034986;28;20223;-70
2023/05/22 00:32:56;;;;;;;1999.90;999.90;;;19.20;99.90;;;;;;5034850;28;20167;-69
2023/05/22 00:35:22;;;;;;;1999.90;999.90;;;19.20;99.90;;;;;;5034851;28;20411;-70
2023/05/22 00:37:47;;;;;;;1999.90;999.90;;;19.00;99.90;;;;;;5034798;28;20203;-70
2023/05/22 00:40:16;;;;;;;1999.90;999.90;;;18.90;99.90;;;;;;5034553;28;20171;-70
2023/05/22 00:42:43;;;;;;;1999.90;999.90;;;18.70;99.90;;;;;;5034323;28;20171;-69
2023/05/22 00:45:13;;;;;;;1999.90;999.90;;;18.60;99.90;;;;;;5034725;28;20460;-69
2023/05/22 00:47:39;;;;;;;1999.90;999.90;;;18.50;99.90;;;;;;5034675;28;20453;-69
2023/05/22 00:50:06;;;;;;;1999.90;999.90;;;18.50;99.90;;;;;;5034393;28;20405;-70
2023/05/22 00:52:34;;;;;;;1999.90;999.90;;;18.40;99.90;;;;;;5034291;28;20480;-69
2023/05/22 00:54:59;;;;;;;1999.90;999.90;;;18.40;99.90;;;;;;5034387;28;20401;-69
2023/05/22 00:57:26;;;;;;;1999.90;999.90;;;18.30;99.90;;;;;;5034580;28;20416;-69
2023/05/22 00:59:52;;;;;;;1999.90;999.90;;;18.30;99.90;;;;;;5034475;28;20181;-69
2023/05/22 01:02:19;;;;;;;1999.90;999.90;;;18.20;99.90;;;;;;5034026;28;20794;-69
2023/05/22 01:04:47;;;;;;;1999.90;999.90;;;18.20;99.90;;;;;;5034221;28;20239;-69
2023/05/22 01:07:15;;;;;;;1999.90;999.90;;;18.20;99.90;;;;;;5034114;28;20518;-69
2023/05/22 01:09:41;;;;;;;1999.90;999.90;;;18.20;99.90;;;;;;5034062;28;20432;-69
2023/05/22 01:12:15;;;;;;;1999.90;999.90;;;18.20;99.90;;;;;;5033746;28;20462;-69
2023/05/22 01:15:32;;;;;;;1999.90;999.90;;;18.10;99.90;;;;;;5034112;28;20170;-69
2023/05/22 01:18:18;;;;;;;1999.90;999.90;;;18.10;99.90;;;;;;4979514;28;20426;-69
2023/05/22 01:21:23;;;;;;;1999.90;999.90;;;18.10;99.90;;;;;;5034048;28;20453;-69
2023/05/22 01:24:46;;;;;;;1999.90;999.90;;;18.10;99.90;;;;;;5029349;28;20426;-69
2023/05/22 01:28:00;;;;;;;1999.90;999.90;;;18.00;99.90;;;;;;4934188;29;20958;-69
2023/05/22 01:31:02;;;;;;;1999.90;999.90;;;17.90;99.90;;;;;;4890495;29;20882;-69
2023/05/22 01:33:44;;;;;;;1999.90;999.90;;;17.90;99.90;;;;;;5033791;28;20409;-69
2023/05/22 01:36:13;;;;;;;1999.90;999.90;;;17.90;99.90;;;;;;5033677;28;20401;-69
2023/05/22 01:38:41;;;;;;;1999.90;999.90;;;17.80;99.90;;;;;;5033624;28;20498;-69
2023/05/22 01:41:07;;;;;;;1999.90;999.90;;;17.80;99.90;;;;;;5033200;28;20486;-69
2023/05/22 01:43:34;;;;;;;1999.90;999.90;;;17.80;99.90;;;;;;5033668;28;20418;-69
2023/05/22 01:46:00;;;;;;;1999.90;999.90;;;17.80;99.90;;;;;;5033415;28;20439;-69
2023/05/22 01:48:26;;;;;;;1999.90;999.90;;;17.70;99.90;;;;;;5033456;28;20573;-69
2023/05/22 01:50:53;;;;;;;1999.90;999.90;;;17.70;99.90;;;;;;5033135;28;20887;-70
2023/05/22 01:53:27;;;;;;;1999.90;999.90;;;17.80;99.90;;;;;;5033356;28;20175;-70
2023/05/22 01:56:15;;;;;;;1999.90;999.90;;;17.80;99.90;;;;;;5033302;28;20416;-70
2023/05/22 01:58:55;;;;;;;1999.90;999.90;;;17.90;99.90;;;;;;5033253;28;20415;-70
2023/05/22 02:01:24;;;;;;;1999.90;999.90;;;17.90;99.90;;;;;;5032792;28;20524;-70
2023/05/22 02:03:55;;;;;;;1999.90;999.90;;;18.00;99.90;;;;;;5033039;28;20401;-70
2023/05/22 02:06:22;;;;;;;1999.90;999.90;;;18.00;99.90;;;;;;5033257;28;20475;-70
2023/05/22 02:08:49;;;;;;;1999.90;999.90;;;18.00;99.90;;;;;;5032977;28;20453;-70
2023/05/22 02:11:16;;;;;;;1999.90;999.90;;;17.90;99.90;;;;;;5032576;28;20776;-70
2023/05/22 02:13:41;;;;;;;1999.90;999.90;;;17.80;99.90;;;;;;5032926;28;20401;-70
2023/05/22 02:16:08;;;;;;;1999.90;999.90;;;17.80;99.90;;;;;;5032906;28;20430;-70
2023/05/22 02:18:33;;;;;;;1999.90;999.90;;;17.90;99.90;;;;;;5032762;28;20645;-70
2023/05/22 02:20:59;;;;;;;1999.90;999.90;;;17.80;99.90;;;;;;5032467;28;20433;-70
2023/05/22 02:23:28;;;;;;;1999.90;999.90;;;17.70;99.90;;;;;;5032863;28;20184;-70
2023/05/22 02:25:54;;;;;;;1999.90;999.90;;;17.60;99.90;;;;;;5032804;28;20414;-70
2023/05/22 02:28:20;;;;;;;1999.90;999.90;;;17.60;99.90;;;;;;5031918;28;20475;-70
2023/05/22 02:30:45;;;;;;;1999.90;999.90;;;17.60;99.90;;;;;;5032504;28;20446;-70
2023/05/22 02:33:11;;;;;;;1999.90;999.90;;;17.50;99.90;;;;;;5032296;28;20181;-70
2023/05/22 02:35:37;;;;;;;1999.90;999.90;;;17.50;99.90;;;;;;5032719;28;20176;-70
2023/05/22 02:38:02;;;;;;;1999.90;999.90;;;17.50;99.90;;;;;;5032435;28;20169;-70
2023/05/22 02:40:28;;;;;;;1999.90;999.90;;;17.50;99.90;;;;;;5032511;28;20225;-70
2023/05/22 02:42:53;;;;;;;1999.90;999.90;;;17.50;99.90;;;;;;5032457;28;20187;-70
2023/05/22 02:45:19;;;;;;;1999.90;999.90;;;17.50;99.90;;;;;;5032591;28;20173;-70
2023/05/22 02:47:45;;;;;;;1999.90;999.90;;;17.50;99.90;;;;;;5032316;28;20712;-69
2023/05/22 02:50:10;;;;;;;1999.90;999.90;;;17.50;99.90;;;;;;5032803;28;20174;-70
2023/05/22 02:52:38;;;;;;;1999.90;999.90;;;17.40;99.90;;;;;;5032494;28;20181;-70
2023/05/22 02:55:04;;;;;;;1999.90;999.90;;;17.40;99.90;;;;;;5032933;28;20168;-70
2023/05/22 02:57:29;;;;;;;1999.90;999.90;;;17.40;99.90;;;;;;5032706;28;20501;-70
2023/05/22 02:59:56;;;;;;;1999.90;999.90;;;17.30;99.90;;;;;;5032690;28;20433;-69
2023/05/22 03:02:24;;;;;;;1999.90;999.90;;;17.30;99.90;;;;;;5032685;28;20200;-70
2023/05/22 03:04:50;;;;;;;1999.90;999.90;;;17.30;99.90;;;;;;5033365;28;20902;-69
2023/05/22 03:07:15;;;;;;;1999.90;999.90;;;17.20;99.90;;;;;;5032270;28;20499;-69
2023/05/22 03:09:41;;;;;;;1999.90;999.90;;;17.20;99.90;;;;;;5032486;28;20195;-69
2023/05/22 03:12:07;;;;;;;1999.90;999.90;;;17.10;99.90;;;;;;5031807;28;20667;-70
2023/05/22 03:14:33;;;;;;;1999.90;999.90;;;17.20;99.90;;;;;;5032070;28;20183;-69
2023/05/22 03:16:59;;;;;;;1999.90;999.90;;;17.10;99.90;;;;;;5032356;28;20889;-69
2023/05/22 03:19:25;;;;;;;1999.90;999.90;;;17.00;99.90;;;;;;5032570;28;20259;-69
2023/05/22 03:21:50;;;;;;;1999.90;999.90;;;16.90;99.90;;;;;;5031755;28;20203;-69
2023/05/22 03:24:16;;;;;;;1999.90;999.90;;;17.00;99.90;;;;;;5032552;28;20415;-70
2023/05/22 03:26:42;;;;;;;1999.90;999.90;;;16.90;99.90;;;;;;5032029;28;20177;-69
2023/05/22 03:29:08;;;;;;;1999.90;999.90;;;16.80;99.90;;;;;;5032093;28;20210;-70
2023/05/22 03:31:34;;;;;;;1999.90;999.90;;;16.80;99.90;;;;;;5031939;28;20427;-69
2023/05/22 03:34:00;;;;;;;1999.90;999.90;;;16.80;99.90;;;;;;5032498;28;20171;-69
2023/05/22 03:36:26;;;;;;;1999.90;999.90;;;16.70;99.90;;;;;;5032356;28;20401;-69
2023/05/22 03:38:51;;;;;;;1999.90;999.90;;;16.70;99.90;;;;;;5032965;28;20174;-70
2023/05/22 03:41:17;;;;;;;1999.90;999.90;;;16.70;99.90;;;;;;5036124;28;20653;-69
2023/05/22 03:43:43;;;;;;;1999.90;999.90;;;16.70;99.90;;;;;;5036583;28;20403;-68
2023/05/22 03:46:09;;;;;;;1999.90;999.90;;;16.80;99.90;;;;;;5036571;28;20248;-70
2023/05/22 03:48:35;;;;;;;1999.90;999.90;;;16.80;99.90;;;;;;5036785;28;20288;-69
2023/05/22 03:51:01;;;;;;;1999.90;999.90;;;16.80;99.90;;;;;;5035811;28;20458;-70
2023/05/22 03:53:26;;;;;;;1999.90;999.90;;;16.90;99.90;;;;;;5036080;28;20414;-69
2023/05/22 03:55:52;;;;;;;1999.90;999.90;;;16.90;99.90;;;;;;5036186;28;20171;-69
2023/05/22 03:58:18;;;;;;;1999.90;999.90;;;16.90;99.90;;;;;;5036289;28;20168;-69
2023/05/22 04:00:45;;;;;;;1999.90;999.90;;;16.90;99.90;;;;;;5035966;28;20719;-70
2023/05/22 04:03:11;;;;;;;1999.90;999.90;;;16.90;99.90;;;;;;5035515;28;20553;-69
2023/05/22 04:05:38;;;;;;;1999.90;999.90;;;16.90;99.90;;;;;;5035298;28;20489;-69
2023/05/22 04:08:03;;;;;;;1999.90;999.90;;;16.90;99.90;;;;;;5035294;28;20528;-69
2023/05/22 04:10:29;;;;;;;1999.90;999.90;;;16.90;99.90;;;;;;5035327;28;21226;-69
2023/05/22 04:12:55;;;;;;;1999.90;999.90;;;16.80;99.90;;;;;;5035053;28;20218;-69
2023/05/22 04:15:20;;;;;;;1999.90;999.90;;;16.80;99.90;;;;;;5035265;28;20173;-69
2023/05/22 04:17:48;;;;;;;1999.90;999.90;;;16.80;99.90;;;;;;5035296;28;20208;-69
2023/05/22 04:20:14;;;;;;;1999.90;999.90;;;16.80;99.90;;;;;;5035103;28;20201;-69
2023/05/22 04:22:40;;;;;;;1999.90;999.90;;;16.90;99.90;;;;;;5034835;28;20497;-69
2023/05/22 04:25:06;;;;;;;1999.90;999.90;;;16.90;99.90;;;;;;5035059;28;20185;-69
2023/05/22 04:27:33;;;;;;;1999.90;999.90;;;17.00;99.90;;;;;;5034756;28;20443;-69
2023/05/22 04:30:01;;;;;;;1999.90;999.90;;;17.00;99.90;;;;;;5035156;28;20448;-69
2023/05/22 04:32:28;;;;;;;1999.90;999.90;;;17.10;99.90;;;;;;5034662;28;20815;-69
2023/05/22 04:34:53;;;;;;;1999.90;999.90;;;17.00;99.90;;;;;;5034791;28;20456;-69
2023/05/22 04:37:19;;;;;;;1999.90;999.90;;;17.00;99.90;;;;;;5034804;28;20883;-69
2023/05/22 04:39:45;;;;;;;1999.90;999.90;;;17.00;99.90;;;;;;5034701;28;20173;-69
2023/05/22 04:42:13;;;;;;;1999.90;999.90;;;17.00;99.90;;;;;;5034361;28;20222;-69
2023/05/22 04:44:39;;;;;;;1999.90;999.90;;;16.90;99.90;;;;;;5034906;28;20415;-69
2023/05/22 04:47:06;;;;;;;1999.90;999.90;;;17.00;99.90;;;;;;5034539;28;20436;-69
2023/05/22 04:49:32;;;;;;;1999.90;999.90;;;17.10;99.90;;;;;;5034616;28;20413;-69
2023/05/22 04:51:58;;;;;;;1999.90;999.90;;;17.00;99.90;;;;;;5033377;28;20486;-69
2023/05/22 04:54:23;;;;;;;1999.90;999.90;;;17.00;99.90;;;;;;5034499;28;20411;-69
2023/05/22 04:56:51;;;;;;;1999.90;999.90;;;17.10;99.90;;;;;;5034411;28;20251;-70
2023/05/22 04:59:18;;;;;;;1999.90;999.90;;;17.10;99.90;;;;;;5034820;28;20618;-70
2023/05/22 05:01:47;;;;;;;1999.90;999.90;;;17.20;99.90;;;;;;5034558;28;21003;-69
2023/05/22 05:04:12;;;;;;;1999.90;999.90;;;17.20;99.90;;;;;;5034928;28;20422;-69
2023/05/22 05:06:38;;;;;;;1999.90;999.90;;;17.30;99.90;;;;;;5035277;28;20772;-69
2023/05/22 05:09:04;;;;;;;1999.90;999.90;;;17.30;99.90;;;;;;5034759;28;20218;-70
2023/05/22 05:11:29;;;;;;;1999.90;999.90;;;17.30;99.90;;;;;;5034349;28;20807;-70
2023/05/22 05:13:55;;;;;;;1999.90;999.90;;;17.30;99.90;;;;;;5034644;28;20413;-69
2023/05/22 05:16:23;;;;;;;1999.90;999.90;;;17.30;99.90;;;;;;5034404;28;20580;-69
2023/05/22 05:18:50;;;;;;;1999.90;999.90;;;17.20;99.90;;;;;;5034221;28;20172;-70
2023/05/22 05:21:16;;;;;;;1999.90;999.90;;;17.20;99.90;;;;;;5034047;28;20804;-69
2023/05/22 05:23:42;;;;;;;1999.90;999.90;;;17.10;99.90;;;;;;5033945;28;20409;-69
2023/05/22 05:26:08;;;;;;;1999.90;999.90;;;17.10;99.90;;;;;;5034200;28;21031;-69
2023/05/22 05:28:33;;;;;;;1999.90;999.90;;;17.00;99.90;;;;;;5034108;28;20573;-69
2023/05/22 05:31:00;;;;;;;1999.90;999.90;;;17.00;99.90;;;;;;5033773;28;20206;-69
2023/05/22 05:33:26;;;;;;;1999.90;999.90;;;17.00;99.90;;;;;;5034054;28;20698;-69
2023/05/22 05:35:52;;;;;;;1999.90;999.90;;;17.00;99.90;;;;;;5034028;28;20407;-69
2023/05/22 05:38:18;;;;;;;1999.90;999.90;;;16.90;99.90;;;;;;5033985;28;20412;-70
2023/05/22 05:40:44;;;;;;;1999.90;999.90;;;17.00;99.90;;;;;;5033677;28;20772;-69
2023/05/22 05:43:10;;;;;;;1999.90;999.90;;;16.90;99.90;;;;;;5033341;28;20186;-70
2023/05/22 05:45:35;;;;;;;1999.90;999.90;;;17.00;99.90;;;;;;5033686;28;20901;-70
2023/05/22 05:48:01;;;;;;;1999.90;999.90;;;16.90;99.90;;;;;;5033524;28;20197;-69
2023/05/22 05:50:26;;;;;;;1999.90;999.90;;;16.80;99.90;;;;;;5033330;28;20277;-69
2023/05/22 05:52:52;;;;;;;1999.90;999.90;;;16.80;99.90;;;;;;5033170;28;20174;-70
2023/05/22 05:55:17;;;;;;;1999.90;999.90;;;16.80;99.90;;;;;;5033455;28;20579;-70
2023/05/22 05:57:43;;;;;;;1999.90;999.90;;;16.90;99.90;;;;;;5033472;28;20171;-69
2023/05/22 06:00:10;;;;;;;1999.90;999.90;;;16.90;99.90;;;;;;5033288;28;20184;-70
2023/05/22 06:02:36;;;;;;;1999.90;999.90;;;16.90;99.90;;;;;;5032084;28;20184;-69
2023/05/22 06:05:06;;;;;;;1999.90;999.90;;;16.90;99.90;;;;;;5033268;28;20499;-70
2023/05/22 06:07:31;;;;;;;1999.90;999.90;;;17.00;99.90;;;;;;5033076;28;20494;-70
2023/05/22 06:09:57;;;;;;;1999.90;999.90;;;17.00;99.90;;;;;;5033075;28;20482;-70
2023/05/22 06:12:23;;;;;;;1999.90;999.90;;;17.10;99.90;;;;;;5032619;28;20191;-70
2023/05/22 06:14:49;;;;;;;1999.90;999.90;;;17.10;99.90;;;;;;5033074;28;20401;-70
2023/05/22 06:17:15;;;;;;;1999.90;999.90;;;17.20;99.90;;;;;;5033058;28;20179;-70
2023/05/22 06:19:41;;;;;;;1999.90;999.90;;;17.20;99.90;;;;;;5033236;28;20170;-70
2023/05/22 06:22:06;;;;;;;1999.90;999.90;;;17.20;99.90;;;;;;5032633;28;20438;-69
2023/05/22 06:24:39;;;;;;;1999.90;999.90;;;17.30;99.90;;;;;;5069522;28;20523;-69
2023/05/22 06:27:05;;;;;;;1999.90;999.90;;;17.30;99.90;;;;;;5069724;28;20542;-70
2023/05/22 06:29:30;;;;;;;1999.90;999.90;;;17.30;99.90;;;;;;5069630;28;20252;-69
2023/05/22 06:31:56;;;;;;;1999.90;999.90;;;17.30;99.90;;;;;;5068927;28;20188;-69
2023/05/22 06:34:21;;;;;;;1999.90;999.90;;;17.50;99.90;;;;;;5069561;28;20665;-70
2023/05/22 06:36:50;;;;;;;1999.90;999.90;;;17.60;99.90;;;;;;5069253;28;20172;-70
2023/05/22 06:39:17;;;;;;;1999.90;999.90;;;17.60;99.90;;;;;;5069394;28;20249;-70
2023/05/22 06:41:43;;;;;;;1999.90;999.90;;;17.70;99.90;;;;;;5068806;28;20433;-70
2023/05/22 06:44:09;;;;;;;1999.90;999.90;;;17.70;99.90;;;;;;5068984;28;20456;-69
2023/05/22 06:46:35;;;;;;;1999.90;999.90;;;17.90;99.90;;;;;;5069082;28;20205;-69
2023/05/22 06:49:00;;;;;;;1999.90;999.90;;;17.80;99.90;;;;;;5069078;28;20775;-69
2023/05/22 06:51:26;;;;;;;1999.90;999.90;;;17.80;99.90;;;;;;5068623;28;20520;-70
2023/05/22 06:53:51;;;;;;;1999.90;999.90;;;18.00;99.90;;;;;;5069195;28;20182;-69
2023/05/22 06:56:17;;;;;;;1999.90;999.90;;;18.00;99.90;;;;;;5068852;28;20187;-69
2023/05/22 06:58:43;;;;;;;1999.90;999.90;;;18.10;99.90;;;;;;5069125;28;20183;-69
2023/05/22 07:01:09;;;;;;;1999.90;999.90;;;18.20;99.90;;;;;;5068574;28;20510;-69
2023/05/22 07:03:34;;;;;;;1999.90;999.90;;;18.20;99.90;;;;;;5068645;28;20202;-70
2023/05/22 07:06:01;;;;;;;1999.90;999.90;;;18.20;99.90;;;;;;5068607;28;20174;-70
2023/05/22 07:08:26;;;;;;;1999.90;999.90;;;18.10;99.90;;;;;;5065163;28;20170;-70
2023/05/22 07:10:52;;;;;;;1999.90;999.90;;;18.20;99.90;;;;;;5048381;28;20454;-70
2023/05/22 07:13:18;;;;;;;1999.90;999.90;;;18.30;99.90;;;;;;5048379;28;20648;-69
2023/05/22 07:15:43;;;;;;;1999.90;999.90;;;18.30;99.90;;;;;;5048549;28;20178;-70
2023/05/22 07:18:09;;;;;;;1999.90;999.90;;;18.30;99.90;;;;;;5048440;28;20170;-69
2023/05/22 07:20:36;;;;;;;1999.90;999.90;;;18.30;99.90;;;;;;5048396;28;20197;-69
2023/05/22 07:23:02;;;;;;;1999.90;999.90;;;18.30;99.90;;;;;;5047868;28;20464;-70
2023/05/22 07:25:28;;;;;;;1999.90;999.90;;;18.30;99.90;;;;;;5054677;28;20421;-70
2023/05/22 07:27:54;;;;;;;1999.90;999.90;;;18.40;99.90;;;;;;5068038;28;21024;-70
2023/05/22 07:30:20;;;;;;;1999.90;999.90;;;18.50;99.90;;;;;;5068210;28;20181;-70
2023/05/22 07:32:47;;;;;;;1999.90;999.90;;;18.50;99.90;;;;;;5067828;28;20494;-70
2023/05/22 07:35:13;;;;;;;1999.90;999.90;;;18.70;99.90;;;;;;5059453;28;20406;-70
2023/05/22 07:37:38;;;;;;;1999.90;999.90;;;18.70;99.90;;;;;;5053910;28;20430;-70
2023/05/22 07:40:06;;;;;;;1999.90;999.90;;;18.80;99.90;;;;;;5054716;28;20172;-70
2023/05/22 07:42:31;;;;;;;1999.90;999.90;;;19.00;99.90;;;;;;5054460;28;20193;-70
2023/05/22 07:44:57;;;;;;;1999.90;999.90;;;19.20;99.90;;;;;;5054535;28;20408;-70
2023/05/22 07:47:23;;;;;;;1999.90;999.90;;;19.20;99.90;;;;;;5054684;28;20217;-70
2023/05/22 07:49:48;;;;;;;1999.90;999.90;;;19.30;99.90;;;;;;5054481;28;20722;-70
2023/05/22 07:52:14;;;;;;;1999.90;999.90;;;19.30;99.90;;;;;;5054205;28;20188;-69
2023/05/22 07:54:40;;;;;;;1999.90;999.90;;;19.20;99.90;;;;;;5054741;28;20170;-70
2023/05/22 07:57:06;;;;;;;1999.90;999.90;;;19.20;99.90;;;;;;5054431;28;20678;-70
2023/05/22 07:59:32;;;;;;;1999.90;999.90;;;19.20;99.90;;;;;;5054284;28;20174;-69
2023/05/22 08:01:58;;;;;;;1999.90;999.90;;;19.30;99.90;;;;;;5054160;28;20413;-69
2023/05/22 08:04:24;;;;;;;1999.90;999.90;;;19.20;99.90;;;;;;5054415;28;21023;-70
2023/05/22 08:06:50;;;;;;;1999.90;999.90;;;19.20;99.90;;;;;;5054443;28;20251;-70
2023/05/22 08:09:15;;;;;;;1999.90;999.90;;;19.30;99.90;;;;;;5054336;28;20954;-70
2023/05/22 08:11:41;;;;;;;1999.90;999.90;;;19.30;99.90;;;;;;5053498;28;20204;-69
2023/05/22 08:14:07;;;;;;;1999.90;999.90;;;19.20;99.90;;;;;;5054415;28;20173;-69
2023/05/22 08:16:33;;;;;;;1999.90;999.90;;;19.00;99.90;;;;;;5054271;28;20642;-69
2023/05/22 08:18:59;;;;;;;1999.90;999.90;;;18.70;99.90;;;;;;5054122;28;20447;-68
2023/05/22 08:21:24;;;;;;;1999.90;999.90;;;18.80;99.90;;;;;;5053890;28;20235;-70
2023/05/22 08:23:50;;;;;;;1999.90;999.90;;;18.90;99.90;;;;;;5053927;28;20217;-70
2023/05/22 08:26:15;;;;;;;1999.90;999.90;;;19.00;99.90;;;;;;5054082;28;20693;-69
2023/05/22 08:28:43;;;;;;;1999.90;999.90;;;18.90;99.90;;;;;;5054094;28;20185;-69
2023/05/22 08:31:12;;;;;;;1999.90;999.90;;;18.90;99.90;;;;;;5053603;28;20195;-70
2023/05/22 08:33:38;;;;;;;1999.90;999.90;;;18.80;99.90;;;;;;5053863;28;20405;-69
2023/05/22 08:36:04;;;;;;;1999.90;999.90;;;18.60;99.90;;;;;;5054180;28;20770;-70
2023/05/22 08:38:30;;;;;;;1999.90;999.90;;;18.70;99.90;;;;;;5054030;28;20488;-69
2023/05/22 08:40:57;;;;;;;1999.90;999.90;;;18.70;99.90;;;;;;5053492;28;20432;-69
2023/05/22 08:43:22;;;;;;;1999.90;999.90;;;18.50;99.90;;;;;;5053642;28;20228;-70
2023/05/22 08:45:54;;;;;;;1999.90;999.90;;;18.50;99.90;;;;;;5053296;28;20416;-70
2023/05/22 08:48:22;;;;;;;1999.90;999.90;;;18.40;99.90;;;;;;5053485;28;20256;-69
2023/05/22 08:50:56;;;;;;;1999.90;999.90;;;18.00;99.90;;;;;;5053382;28;20843;-68
2023/05/22 08:53:23;;;;;;;1999.90;999.90;;;17.90;99.90;;;;;;5053570;28;20413;-69
2023/05/22 08:55:51;;;;;;;1999.90;999.90;;;17.70;99.90;;;;;;5053159;28;20403;-69
2023/05/22 08:58:17;;;;;;;1999.90;999.90;;;17.60;99.90;;;;;;5053216;28;20538;-69
2023/05/22 09:00:43;;;;;;;1999.90;999.90;;;17.60;99.90;;;;;;5053118;28;20428;-69
2023/05/22 09:03:12;;;;;;;1999.90;999.90;;;17.70;99.90;;;;;;5052882;28;20446;-69
2023/05/22 09:05:41;;;;;;;1999.90;999.90;;;17.60;99.90;;;;;;5053698;28;20413;-69
2023/05/22 09:08:07;;;;;;;1999.90;999.90;;;17.60;99.90;;;;;;5053124;28;20494;-69
2023/05/22 09:10:33;;;;;;;1999.90;999.90;;;17.90;99.90;;;;;;5053209;28;20428;-69
2023/05/22 09:13:04;;;;;;;1999.90;999.90;;;18.00;99.90;;;;;;5052660;28;20418;-70
2023/05/22 09:15:31;;;;;;;1999.90;999.90;;;18.00;99.90;;;;;;5052873;28;20419;-69
2023/05/22 09:17:57;;;;;;;1999.90;999.90;;;18.20;99.90;;;;;;5053134;28;20467;-70
2023/05/22 09:20:23;;;;;;;1999.90;999.90;;;18.30;99.90;;;;;;5052772;28;20500;-70
2023/05/22 09:22:49;;;;;;;1999.90;999.90;;;18.50;99.90;;;;;;5052259;28;20504;-70
2023/05/22 09:25:18;;;;;;;1999.90;999.90;;;18.50;99.90;;;;;;5052691;28;20447;-70
2023/05/22 09:27:47;;;;;;;1999.90;999.90;;;18.20;99.90;;;;;;5052567;28;20166;-70
2023/05/22 09:30:19;;;;;;;1999.90;999.90;;;18.10;99.90;;;;;;5052479;28;20412;-70
2023/05/22 09:32:47;;;;;;;1999.90;999.90;;;18.10;99.90;;;;;;5052265;28;20433;-70
2023/05/22 09:35:13;;;;;;;1999.90;999.90;;;18.10;99.90;;;;;;5052373;28;20410;-70
2023/05/22 09:37:39;;;;;;;1999.90;999.90;;;18.10;99.90;;;;;;5036287;28;20416;-72
2023/05/22 09:40:07;;;;;;;1999.90;999.90;;;18.00;99.90;;;;;;5035206;28;20187;-71
2023/05/22 09:42:33;;;;;;;1999.90;999.90;;;18.10;99.90;;;;;;5040034;28;20434;-71
2023/05/22 09:45:03;;;;;;;1999.90;999.90;;;18.30;99.90;;;;;;5044755;28;20412;-71
2023/05/22 09:47:29;;;;;;;1999.90;999.90;;;18.30;99.90;;;;;;5052222;28;20443;-71
2023/05/22 09:49:57;;;;;;;1999.90;999.90;;;18.10;99.90;;;;;;5044337;28;20439;-70
2023/05/22 09:52:23;;;;;;;1999.90;999.90;;;18.10;99.90;;;;;;5051635;28;20186;-71
2023/05/22 09:54:54;;;;;;;1999.90;999.90;;;18.20;99.90;;;;;;5052068;28;20487;-71
2023/05/22 09:57:24;;;;;;;1999.90;999.90;;;18.20;99.90;;;;;;5048026;28;20409;-70
2023/05/22 09:59:53;;;;;;;1999.90;999.90;;;18.30;99.90;;;;;;5051735;28;20456;-70
2023/05/22 10:02:23;;;;;;;1999.90;999.90;;;18.30;99.90;;;;;;5051567;28;20432;-70
2023/05/22 10:04:49;;;;;;;1999.90;999.90;;;18.30;99.90;;;;;;5052018;28;20401;-71
2023/05/22 10:07:20;;;;;;;1999.90;999.90;;;18.30;99.90;;;;;;5051984;28;20427;-70
2023/05/22 10:09:51;;;;;;;1999.90;999.90;;;18.40;99.90;;;;;;5051950;28;20454;-71
2023/05/22 10:12:20;;;;;;;1999.90;999.90;;;18.50;99.90;;;;;;5051693;28;20416;-72
2023/05/22 10:14:47;;;;;;;1999.90;999.90;;;18.60;99.90;;;;;;5051796;28;20414;-70
2023/05/22 10:17:15;;;;;;;1999.90;999.90;;;18.50;99.90;;;;;;5051710;28;20410;-69
2023/05/22 10:19:41;;;;;;;1999.90;999.90;;;18.40;99.90;;;;;;5052007;28;20496;-71
2023/05/22 10:22:07;;;;;;;1999.90;999.90;;;18.30;99.90;;;;;;5051627;28;20513;-70
2023/05/22 10:24:33;;;;;;;1999.90;999.90;;;18.10;99.90;;;;;;5051474;28;20573;-71
2023/05/22 10:26:59;;;;;;;1999.90;999.90;;;18.10;99.90;;;;;;5051645;28;20406;-69
2023/05/22 10:29:33;;;;;;;1999.90;999.90;;;18.10;99.90;;;;;;5051708;28;20154;-70
2023/05/22 10:32:25;;;;;;;1999.90;999.90;;;18.20;99.90;;;;;;5051411;28;20191;-70
2023/05/22 10:34:56;;;;;;;1999.90;999.90;;;18.30;99.90;;;;;;5051700;28;20885;-70
2023/05/22 10:37:39;;;;;;;1999.90;999.90;;;18.40;99.90;;;;;;5051622;28;20417;-70
2023/05/22 10:40:09;;;;;;;1999.90;999.90;;;18.40;99.90;;;;;;5051880;28;20423;-70
2023/05/22 10:42:36;;;;;;;1999.90;999.90;;;18.50;99.90;;;;;;5051228;28;20408;-70
2023/05/22 10:45:05;;;;;;;1999.90;999.90;;;18.60;99.90;;;;;;5051571;28;20394;-71
2023/05/22 10:47:33;;;;;;;1999.90;999.90;;;18.70;99.90;;;;;;5051393;28;20417;-71
2023/05/22 10:50:08;;;;;;;1999.90;999.90;;;18.80;99.90;;;;;;5051255;28;20893;-71
2023/05/22 10:52:35;;;;;;;1999.90;999.90;;;19.00;99.90;;;;;;5051047;28;20405;-71
2023/05/22 10:55:05;;;;;;;1999.90;999.90;;;18.80;99.90;;;;;;5051344;28;20405;-71
2023/05/22 10:57:35;;;;;;;1999.90;999.90;;;19.00;99.90;;;;;;5051738;28;20397;-71
2023/05/22 11:00:08;;;;;;;1999.90;999.90;;;19.10;99.90;;;;;;5051363;28;20940;-71
2023/05/22 11:02:41;;;;;;;1999.90;999.90;;;19.30;99.90;;;;;;5051010;28;20449;-70
2023/05/22 11:05:15;;;;;;;1999.90;999.90;;;19.50;99.90;;;;;;5051435;28;20429;-70
2023/05/22 11:07:41;;;;;;;1999.90;999.90;;;19.60;99.90;;;;;;5051284;28;20527;-71
2023/05/22 11:10:07;;;;;;;1999.90;999.90;;;19.60;99.90;;;;;;5052833;28;20898;-71
2023/05/22 11:12:33;;;;;;;1999.90;999.90;;;19.70;99.90;;;;;;5054932;28;20659;-71
2023/05/22 11:15:05;;;;;;;1999.90;999.90;;;19.90;99.90;;;;;;5055047;28;20196;-71
2023/05/22 11:17:50;;;;;;;1999.90;999.90;;;20.00;99.90;;;;;;5055022;28;20252;-70
2023/05/22 11:20:24;;;;;;;1999.90;999.90;;;20.10;99.90;;;;;;5054879;28;21004;-70
2023/05/22 11:23:02;;;;;;;1999.90;999.90;;;20.10;99.90;;;;;;5054610;28;20489;-70
2023/05/22 11:25:28;;;;;;;1999.90;999.90;;;20.20;99.90;;;;;;5054904;28;20410;-70
2023/05/22 11:27:55;;;;;;;1999.90;999.90;;;20.60;99.90;;;;;;5054762;28;20402;-70
2023/05/22 11:30:24;;;;;;;1999.90;999.90;;;20.40;99.90;;;;;;5054760;28;20403;-70
2023/05/22 11:32:50;;;;;;;1999.90;999.90;;;20.40;99.90;;;;;;5054457;28;20408;-70
2023/05/22 11:35:20;;;;;;;1999.90;999.90;;;20.30;99.90;;;;;;5054648;28;20900;-70
2023/05/22 11:37:47;;;;;;;1999.90;999.90;;;20.30;99.90;;;;;;5051444;28;20422;-71
2023/05/22 11:40:16;;;;;;;1999.90;999.90;;;20.50;99.90;;;;;;5054265;28;20412;-71
2023/05/22 11:42:42;;;;;;;1999.90;999.90;;;20.70;99.90;;;;;;5053865;28;20906;-71
2023/05/22 11:45:08;;;;;;;1999.90;999.90;;;20.50;99.90;;;;;;5053683;28;20427;-70
2023/05/22 11:47:34;;;;;;;1999.90;999.90;;;20.50;99.90;;;;;;5054087;28;20264;-70
2023/05/22 11:50:01;;;;;;;1999.90;999.90;;;20.60;99.90;;;;;;5054047;28;20458;-70
2023/05/22 11:52:34;;;;;;;1999.90;999.90;;;20.60;99.90;;;;;;5053121;28;20270;-70
2023/05/22 11:55:00;;;;;;;1999.90;999.90;;;20.80;99.90;;;;;;5053949;28;20404;-71
2023/05/22 11:57:27;;;;;;;1999.90;999.90;;;20.90;99.90;;;;;;5046345;28;20410;-71
2023/05/22 11:59:52;;;;;;;1999.90;999.90;;;21.10;99.90;;;;;;5053240;28;20443;-71
2023/05/22 12:02:18;;;;;;;1999.90;999.90;;;21.60;99.90;;;;;;5053283;28;20436;-71